sensor_id;sensor_type;location;lat;lon;timestamp;P1;durP1;ratioP1;P2;durP2;ratioP2
17382;SDS011;8809;51.892;8.384;2023-10-31T00:02:19;2.40;;;1.90;;
17382;SDS011;8809;51.892;8.384;2023-10-31T00:04:47;1.40;;;1.30;;
17382;SDS011;8809;51.892;8.384;2023-10-31T00:07:14;1.58;;;1.40;;
17382;SDS011;8809;51.892;8.384;2023-10-31T00:09:44;2.13;;;1.55;;
17382;SDS011;8809;51.892;8.384;2023-10-31T00:12:11;1.75;;;1.65;;
17382;SDS011;8809;51.892;8.384;2023-10-31T00:14:39;1.60;;;1.50;;
17382;SDS011;8809;51.892;8.384;2023-10-31T00:17:08;1.50;;;1.33;;
17382;SDS011;8809;51.892;8.384;2023-10-31T00:19:35;1.70;;;1.60;;
17382;SDS011;8809;51.892;8.384;2023-10-31T00:22:03;2.28;;;2.08;;
17382;SDS011;8809;51.892;8.384;2023-10-31T00:24:30;1.58;;;1.48;;
17382;SDS011;8809;51.892;8.384;2023-10-31T00:26:59;2.47;;;1.63;;
17382;SDS011;8809;51.892;8.384;2023-10-31T00:29:26;1.50;;;1.40;;
17382;SDS011;8809;51.892;8.384;2023-10-31T00:31:53;1.50;;;1.35;;
17382;SDS011;8809;51.892;8.384;2023-10-31T00:34:20;1.42;;;1.30;;
17382;SDS011;8809;51.892;8.384;2023-10-31T00:36:50;2.30;;;1.55;;
17382;SDS011;8809;51.892;8.384;2023-10-31T00:39:17;1.73;;;1.63;;
17382;SDS011;8809;51.892;8.384;2023-10-31T00:41:45;1.67;;;1.58;;
17382;SDS011;8809;51.892;8.384;2023-10-31T00:44:13;2.08;;;1.73;;
17382;SDS011;8809;51.892;8.384;2023-10-31T00:46:41;2.28;;;1.67;;
17382;SDS011;8809;51.892;8.384;2023-10-31T00:49:09;3.00;;;2.50;;
17382;SDS011;8809;51.892;8.384;2023-10-31T00:51:36;2.22;;;2.03;;
17382;SDS011;8809;51.892;8.384;2023-10-31T00:54:04;3.63;;;2.42;;
17382;SDS011;8809;51.892;8.384;2023-10-31T00:56:31;2.85;;;2.45;;
17382;SDS011;8809;51.892;8.384;2023-10-31T00:58:58;2.85;;;2.42;;
17382;SDS011;8809;51.892;8.384;2023-10-31T01:01:26;2.42;;;2.22;;
17382;SDS011;8809;51.892;8.384;2023-10-31T01:03:55;2.13;;;1.92;;
17382;SDS011;8809;51.892;8.384;2023-10-31T01:06:23;4.28;;;2.70;;
17382;SDS011;8809;51.892;8.384;2023-10-31T01:08:50;2.10;;;1.90;;
17382;SDS011;8809;51.892;8.384;2023-10-31T01:11:17;2.80;;;2.60;;
17382;SDS011;8809;51.892;8.384;2023-10-31T01:13:44;2.13;;;1.92;;
17382;SDS011;8809;51.892;8.384;2023-10-31T01:16:14;2.42;;;2.00;;
17382;SDS011;8809;51.892;8.384;2023-10-31T01:18:44;1.98;;;1.88;;
17382;SDS011;8809;51.892;8.384;2023-10-31T01:21:14;2.33;;;2.13;;
17382;SDS011;8809;51.892;8.384;2023-10-31T01:23:41;3.72;;;1.80;;
17382;SDS011;8809;51.892;8.384;2023-10-31T01:26:08;4.32;;;2.17;;
17382;SDS011;8809;51.892;8.384;2023-10-31T01:28:35;2.30;;;2.10;;
17382;SDS011;8809;51.892;8.384;2023-10-31T01:31:02;3.67;;;3.00;;
17382;SDS011;8809;51.892;8.384;2023-10-31T01:33:30;4.35;;;3.95;;
17382;SDS011;8809;51.892;8.384;2023-10-31T01:35:58;4.40;;;4.00;;
17382;SDS011;8809;51.892;8.384;2023-10-31T01:38:25;4.72;;;4.32;;
17382;SDS011;8809;51.892;8.384;2023-10-31T01:40:52;6.03;;;4.25;;
17382;SDS011;8809;51.892;8.384;2023-10-31T01:43:29;4.90;;;4.50;;
17382;SDS011;8809;51.892;8.384;2023-10-31T01:45:57;6.95;;;5.18;;
17382;SDS011;8809;51.892;8.384;2023-10-31T01:48:24;5.00;;;4.43;;
17382;SDS011;8809;51.892;8.384;2023-10-31T01:50:54;5.70;;;5.20;;
17382;SDS011;8809;51.892;8.384;2023-10-31T01:53:23;5.50;;;5.00;;
17382;SDS011;8809;51.892;8.384;2023-10-31T01:55:51;5.80;;;5.30;;
17382;SDS011;8809;51.892;8.384;2023-10-31T01:58:23;5.97;;;5.47;;
17382;SDS011;8809;51.892;8.384;2023-10-31T02:00:58;6.30;;;5.70;;
17382;SDS011;8809;51.892;8.384;2023-10-31T02:03:27;5.93;;;5.43;;
17382;SDS011;8809;51.892;8.384;2023-10-31T02:05:54;6.50;;;5.90;;
17382;SDS011;8809;51.892;8.384;2023-10-31T02:08:26;6.15;;;5.55;;
17382;SDS011;8809;51.892;8.384;2023-10-31T02:10:53;5.80;;;5.30;;
17382;SDS011;8809;51.892;8.384;2023-10-31T02:13:20;6.20;;;5.43;;
17382;SDS011;8809;51.892;8.384;2023-10-31T02:15:49;4.70;;;4.20;;
17382;SDS011;8809;51.892;8.384;2023-10-31T02:18:16;3.58;;;3.28;;
17382;SDS011;8809;51.892;8.384;2023-10-31T02:20:43;3.72;;;3.03;;
17382;SDS011;8809;51.892;8.384;2023-10-31T02:23:12;3.55;;;3.08;;
17382;SDS011;8809;51.892;8.384;2023-10-31T02:25:42;3.63;;;3.33;;
17382;SDS011;8809;51.892;8.384;2023-10-31T02:28:09;3.35;;;2.80;;
17382;SDS011;8809;51.892;8.384;2023-10-31T02:30:36;3.13;;;2.92;;
17382;SDS011;8809;51.892;8.384;2023-10-31T02:33:03;3.35;;;3.05;;
17382;SDS011;8809;51.892;8.384;2023-10-31T02:35:30;3.03;;;2.83;;
17382;SDS011;8809;51.892;8.384;2023-10-31T02:37:57;3.05;;;2.85;;
17382;SDS011;8809;51.892;8.384;2023-10-31T02:40:26;3.55;;;2.92;;
17382;SDS011;8809;51.892;8.384;2023-10-31T02:42:54;3.35;;;2.90;;
17382;SDS011;8809;51.892;8.384;2023-10-31T02:45:21;3.33;;;2.60;;
17382;SDS011;8809;51.892;8.384;2023-10-31T02:47:48;3.90;;;2.30;;
17382;SDS011;8809;51.892;8.384;2023-10-31T02:50:15;2.72;;;2.50;;
17382;SDS011;8809;51.892;8.384;2023-10-31T02:52:42;4.38;;;2.88;;
17382;SDS011;8809;51.892;8.384;2023-10-31T02:55:09;3.15;;;2.95;;
17382;SDS011;8809;51.892;8.384;2023-10-31T02:57:38;3.50;;;3.15;;
17382;SDS011;8809;51.892;8.384;2023-10-31T03:00:06;2.78;;;2.42;;
17382;SDS011;8809;51.892;8.384;2023-10-31T03:02:33;3.30;;;3.00;;
17382;SDS011;8809;51.892;8.384;2023-10-31T03:05:00;2.90;;;2.70;;
17382;SDS011;8809;51.892;8.384;2023-10-31T03:07:28;2.75;;;2.28;;
17382;SDS011;8809;51.892;8.384;2023-10-31T03:09:56;2.42;;;2.13;;
17382;SDS011;8809;51.892;8.384;2023-10-31T03:12:27;3.22;;;1.85;;
17382;SDS011;8809;51.892;8.384;2023-10-31T03:14:56;2.13;;;1.92;;
17382;SDS011;8809;51.892;8.384;2023-10-31T03:17:23;2.17;;;1.60;;
17382;SDS011;8809;51.892;8.384;2023-10-31T03:19:51;2.72;;;1.88;;
17382;SDS011;8809;51.892;8.384;2023-10-31T03:22:18;3.58;;;1.73;;
17382;SDS011;8809;51.892;8.384;2023-10-31T03:24:45;2.20;;;1.63;;
17382;SDS011;8809;51.892;8.384;2023-10-31T03:27:12;4.75;;;1.90;;
17382;SDS011;8809;51.892;8.384;2023-10-31T03:29:39;1.80;;;1.70;;
17382;SDS011;8809;51.892;8.384;2023-10-31T03:32:09;2.05;;;1.63;;
17382;SDS011;8809;51.892;8.384;2023-10-31T03:34:37;2.40;;;1.70;;
17382;SDS011;8809;51.892;8.384;2023-10-31T03:37:04;2.25;;;1.60;;
17382;SDS011;8809;51.892;8.384;2023-10-31T03:39:32;2.08;;;1.80;;
17382;SDS011;8809;51.892;8.384;2023-10-31T03:41:59;2.03;;;1.50;;
17382;SDS011;8809;51.892;8.384;2023-10-31T03:44:26;2.33;;;1.83;;
17382;SDS011;8809;51.892;8.384;2023-10-31T03:46:53;6.70;;;1.70;;
17382;SDS011;8809;51.892;8.384;2023-10-31T03:49:22;3.80;;;1.70;;
17382;SDS011;8809;51.892;8.384;2023-10-31T03:51:48;1.90;;;1.70;;
17382;SDS011;8809;51.892;8.384;2023-10-31T03:54:15;2.13;;;1.67;;
17382;SDS011;8809;51.892;8.384;2023-10-31T03:56:42;2.33;;;1.75;;
17382;SDS011;8809;51.892;8.384;2023-10-31T03:59:09;1.77;;;1.58;;
17382;SDS011;8809;51.892;8.384;2023-10-31T04:01:37;2.03;;;1.83;;
17382;SDS011;8809;51.892;8.384;2023-10-31T04:04:05;2.58;;;2.08;;
17382;SDS011;8809;51.892;8.384;2023-10-31T04:06:33;5.03;;;1.90;;
17382;SDS011;8809;51.892;8.384;2023-10-31T04:09:01;3.40;;;1.98;;
17382;SDS011;8809;51.892;8.384;2023-10-31T04:11:27;3.40;;;1.92;;
17382;SDS011;8809;51.892;8.384;2023-10-31T04:13:55;3.47;;;2.35;;
17382;SDS011;8809;51.892;8.384;2023-10-31T04:16:22;3.67;;;2.30;;
17382;SDS011;8809;51.892;8.384;2023-10-31T04:18:49;5.03;;;2.75;;
17382;SDS011;8809;51.892;8.384;2023-10-31T04:21:16;2.85;;;2.53;;
17382;SDS011;8809;51.892;8.384;2023-10-31T04:23:44;4.28;;;3.20;;
17382;SDS011;8809;51.892;8.384;2023-10-31T04:26:11;4.13;;;3.40;;
17382;SDS011;8809;51.892;8.384;2023-10-31T04:28:38;5.40;;;3.50;;
17382;SDS011;8809;51.892;8.384;2023-10-31T04:31:06;4.68;;;3.72;;
17382;SDS011;8809;51.892;8.384;2023-10-31T04:33:33;5.05;;;3.72;;
17382;SDS011;8809;51.892;8.384;2023-10-31T04:36:00;4.28;;;3.88;;
17382;SDS011;8809;51.892;8.384;2023-10-31T04:38:31;6.72;;;4.30;;
17382;SDS011;8809;51.892;8.384;2023-10-31T04:40:59;5.60;;;4.95;;
17382;SDS011;8809;51.892;8.384;2023-10-31T04:43:28;6.97;;;5.35;;
17382;SDS011;8809;51.892;8.384;2023-10-31T04:45:55;5.32;;;4.78;;
17382;SDS011;8809;51.892;8.384;2023-10-31T04:48:22;6.70;;;5.63;;
17382;SDS011;8809;51.892;8.384;2023-10-31T04:50:49;6.78;;;5.07;;
17382;SDS011;8809;51.892;8.384;2023-10-31T04:53:16;5.60;;;5.10;;
17382;SDS011;8809;51.892;8.384;2023-10-31T04:55:43;8.45;;;5.75;;
17382;SDS011;8809;51.892;8.384;2023-10-31T04:58:15;6.13;;;5.40;;
17382;SDS011;8809;51.892;8.384;2023-10-31T05:00:42;8.13;;;6.68;;
17382;SDS011;8809;51.892;8.384;2023-10-31T05:03:09;10.23;;;6.20;;
17382;SDS011;8809;51.892;8.384;2023-10-31T05:05:37;7.88;;;6.07;;
17382;SDS011;8809;51.892;8.384;2023-10-31T05:08:04;7.40;;;5.93;;
17382;SDS011;8809;51.892;8.384;2023-10-31T05:10:31;6.82;;;6.13;;
17382;SDS011;8809;51.892;8.384;2023-10-31T05:12:59;8.23;;;5.80;;
17382;SDS011;8809;51.892;8.384;2023-10-31T05:15:29;8.65;;;6.57;;
17382;SDS011;8809;51.892;8.384;2023-10-31T05:17:56;9.32;;;7.15;;
17382;SDS011;8809;51.892;8.384;2023-10-31T05:20:23;9.10;;;6.43;;
17382;SDS011;8809;51.892;8.384;2023-10-31T05:22:50;9.00;;;6.55;;
17382;SDS011;8809;51.892;8.384;2023-10-31T05:25:17;8.82;;;6.90;;
17382;SDS011;8809;51.892;8.384;2023-10-31T05:27:44;11.48;;;7.32;;
17382;SDS011;8809;51.892;8.384;2023-10-31T05:30:13;10.82;;;7.28;;
17382;SDS011;8809;51.892;8.384;2023-10-31T05:32:42;11.45;;;8.38;;
17382;SDS011;8809;51.892;8.384;2023-10-31T05:35:09;10.30;;;8.32;;
17382;SDS011;8809;51.892;8.384;2023-10-31T05:37:38;11.85;;;8.40;;
17382;SDS011;8809;51.892;8.384;2023-10-31T05:40:06;9.70;;;8.02;;
17382;SDS011;8809;51.892;8.384;2023-10-31T05:42:34;9.80;;;7.72;;
17382;SDS011;8809;51.892;8.384;2023-10-31T05:45:01;12.73;;;9.68;;
17382;SDS011;8809;51.892;8.384;2023-10-31T05:47:29;13.05;;;8.93;;
17382;SDS011;8809;51.892;8.384;2023-10-31T05:49:58;12.98;;;9.80;;
17382;SDS011;8809;51.892;8.384;2023-10-31T05:52:27;13.13;;;11.23;;
17382;SDS011;8809;51.892;8.384;2023-10-31T05:54:54;13.68;;;10.60;;
17382;SDS011;8809;51.892;8.384;2023-10-31T05:57:22;15.27;;;11.65;;
17382;SDS011;8809;51.892;8.384;2023-10-31T05:59:49;16.52;;;11.65;;
17382;SDS011;8809;51.892;8.384;2023-10-31T06:02:16;15.77;;;12.40;;
17382;SDS011;8809;51.892;8.384;2023-10-31T06:04:43;17.65;;;12.43;;
17382;SDS011;8809;51.892;8.384;2023-10-31T06:07:11;17.55;;;13.00;;
17382;SDS011;8809;51.892;8.384;2023-10-31T06:09:38;17.08;;;13.02;;
17382;SDS011;8809;51.892;8.384;2023-10-31T06:12:09;16.38;;;12.30;;
17382;SDS011;8809;51.892;8.384;2023-10-31T06:14:37;17.25;;;12.13;;
17382;SDS011;8809;51.892;8.384;2023-10-31T06:17:05;14.85;;;11.75;;
17382;SDS011;8809;51.892;8.384;2023-10-31T06:19:33;21.00;;;11.40;;
17382;SDS011;8809;51.892;8.384;2023-10-31T06:22:01;14.10;;;10.68;;
17382;SDS011;8809;51.892;8.384;2023-10-31T06:24:29;14.32;;;10.38;;
17382;SDS011;8809;51.892;8.384;2023-10-31T06:26:56;15.52;;;9.77;;
17382;SDS011;8809;51.892;8.384;2023-10-31T06:29:24;15.70;;;9.68;;
17382;SDS011;8809;51.892;8.384;2023-10-31T06:31:51;11.18;;;9.32;;
17382;SDS011;8809;51.892;8.384;2023-10-31T06:34:18;13.00;;;8.70;;
17382;SDS011;8809;51.892;8.384;2023-10-31T06:36:45;10.43;;;8.40;;
17382;SDS011;8809;51.892;8.384;2023-10-31T06:39:12;11.77;;;9.13;;
17382;SDS011;8809;51.892;8.384;2023-10-31T06:41:41;11.27;;;8.15;;
17382;SDS011;8809;51.892;8.384;2023-10-31T06:44:09;11.10;;;8.45;;
17382;SDS011;8809;51.892;8.384;2023-10-31T06:46:37;10.45;;;8.73;;
17382;SDS011;8809;51.892;8.384;2023-10-31T06:49:04;11.60;;;9.25;;
17382;SDS011;8809;51.892;8.384;2023-10-31T06:51:31;11.18;;;9.18;;
17382;SDS011;8809;51.892;8.384;2023-10-31T06:53:58;11.57;;;8.35;;
17382;SDS011;8809;51.892;8.384;2023-10-31T06:56:26;12.82;;;9.05;;
17382;SDS011;8809;51.892;8.384;2023-10-31T06:58:55;13.80;;;9.25;;
17382;SDS011;8809;51.892;8.384;2023-10-31T07:01:25;12.57;;;7.97;;
17382;SDS011;8809;51.892;8.384;2023-10-31T07:03:52;10.30;;;7.90;;
17382;SDS011;8809;51.892;8.384;2023-10-31T07:06:19;11.70;;;7.97;;
17382;SDS011;8809;51.892;8.384;2023-10-31T07:08:47;10.05;;;7.28;;
17382;SDS011;8809;51.892;8.384;2023-10-31T07:11:14;9.68;;;7.50;;
17382;SDS011;8809;51.892;8.384;2023-10-31T07:13:41;11.65;;;7.97;;
17382;SDS011;8809;51.892;8.384;2023-10-31T07:16:09;10.77;;;7.57;;
17382;SDS011;8809;51.892;8.384;2023-10-31T07:18:36;9.38;;;7.00;;
17382;SDS011;8809;51.892;8.384;2023-10-31T07:21:04;11.18;;;7.63;;
17382;SDS011;8809;51.892;8.384;2023-10-31T07:23:31;10.65;;;7.10;;
17382;SDS011;8809;51.892;8.384;2023-10-31T07:26:02;10.00;;;7.13;;
17382;SDS011;8809;51.892;8.384;2023-10-31T07:28:30;10.23;;;7.20;;
17382;SDS011;8809;51.892;8.384;2023-10-31T07:30:57;9.48;;;6.80;;
17382;SDS011;8809;51.892;8.384;2023-10-31T07:33:25;7.95;;;6.32;;
17382;SDS011;8809;51.892;8.384;2023-10-31T07:35:52;9.40;;;5.80;;
17382;SDS011;8809;51.892;8.384;2023-10-31T07:38:22;6.57;;;4.65;;
17382;SDS011;8809;51.892;8.384;2023-10-31T07:40:52;6.20;;;4.22;;
17382;SDS011;8809;51.892;8.384;2023-10-31T07:43:19;4.35;;;3.33;;
17382;SDS011;8809;51.892;8.384;2023-10-31T07:45:47;3.50;;;2.63;;
17382;SDS011;8809;51.892;8.384;2023-10-31T07:48:14;3.20;;;2.25;;
17382;SDS011;8809;51.892;8.384;2023-10-31T07:50:43;2.50;;;2.13;;
17382;SDS011;8809;51.892;8.384;2023-10-31T07:53:13;3.05;;;2.10;;
17382;SDS011;8809;51.892;8.384;2023-10-31T07:55:41;3.05;;;2.10;;
17382;SDS011;8809;51.892;8.384;2023-10-31T07:58:08;3.60;;;2.40;;
17382;SDS011;8809;51.892;8.384;2023-10-31T08:00:36;5.00;;;3.08;;
17382;SDS011;8809;51.892;8.384;2023-10-31T08:03:05;4.50;;;3.30;;
17382;SDS011;8809;51.892;8.384;2023-10-31T08:05:32;4.15;;;3.22;;
17382;SDS011;8809;51.892;8.384;2023-10-31T08:08:00;6.10;;;4.28;;
17382;SDS011;8809;51.892;8.384;2023-10-31T08:10:28;5.28;;;3.88;;
17382;SDS011;8809;51.892;8.384;2023-10-31T08:12:56;5.07;;;3.97;;
17382;SDS011;8809;51.892;8.384;2023-10-31T08:15:23;7.55;;;5.25;;
17382;SDS011;8809;51.892;8.384;2023-10-31T08:17:50;5.78;;;4.43;;
17382;SDS011;8809;51.892;8.384;2023-10-31T08:20:17;6.78;;;4.72;;
17382;SDS011;8809;51.892;8.384;2023-10-31T08:22:45;5.93;;;4.88;;
17382;SDS011;8809;51.892;8.384;2023-10-31T08:25:13;6.47;;;4.28;;
17382;SDS011;8809;51.892;8.384;2023-10-31T08:27:41;7.30;;;4.20;;
17382;SDS011;8809;51.892;8.384;2023-10-31T08:30:08;6.28;;;4.10;;
17382;SDS011;8809;51.892;8.384;2023-10-31T08:32:36;4.85;;;3.95;;
17382;SDS011;8809;51.892;8.384;2023-10-31T08:35:04;6.10;;;3.80;;
17382;SDS011;8809;51.892;8.384;2023-10-31T08:37:31;7.22;;;4.13;;
17382;SDS011;8809;51.892;8.384;2023-10-31T08:39:58;6.20;;;3.60;;
17382;SDS011;8809;51.892;8.384;2023-10-31T08:42:31;5.00;;;3.63;;
17382;SDS011;8809;51.892;8.384;2023-10-31T08:44:58;5.47;;;3.50;;
17382;SDS011;8809;51.892;8.384;2023-10-31T08:47:25;4.95;;;3.45;;
17382;SDS011;8809;51.892;8.384;2023-10-31T08:49:54;4.18;;;2.90;;
17382;SDS011;8809;51.892;8.384;2023-10-31T08:52:21;3.72;;;2.83;;
17382;SDS011;8809;51.892;8.384;2023-10-31T08:54:48;4.80;;;3.75;;
17382;SDS011;8809;51.892;8.384;2023-10-31T08:57:15;5.72;;;3.70;;
17382;SDS011;8809;51.892;8.384;2023-10-31T08:59:44;5.60;;;3.70;;
17382;SDS011;8809;51.892;8.384;2023-10-31T09:02:11;7.57;;;4.22;;
17382;SDS011;8809;51.892;8.384;2023-10-31T09:04:38;6.38;;;4.43;;
17382;SDS011;8809;51.892;8.384;2023-10-31T09:07:06;8.77;;;4.97;;
17382;SDS011;8809;51.892;8.384;2023-10-31T09:09:33;6.07;;;4.30;;
17382;SDS011;8809;51.892;8.384;2023-10-31T09:12:00;4.93;;;4.13;;
17382;SDS011;8809;51.892;8.384;2023-10-31T09:14:27;6.78;;;4.97;;
17382;SDS011;8809;51.892;8.384;2023-10-31T09:16:56;8.85;;;5.32;;
17382;SDS011;8809;51.892;8.384;2023-10-31T09:19:23;7.50;;;5.43;;
17382;SDS011;8809;51.892;8.384;2023-10-31T09:21:50;8.80;;;6.03;;
17382;SDS011;8809;51.892;8.384;2023-10-31T09:24:17;9.73;;;6.32;;
17382;SDS011;8809;51.892;8.384;2023-10-31T09:26:44;10.15;;;6.60;;
17382;SDS011;8809;51.892;8.384;2023-10-31T09:29:11;10.13;;;7.18;;
17382;SDS011;8809;51.892;8.384;2023-10-31T09:31:38;11.63;;;7.28;;
17382;SDS011;8809;51.892;8.384;2023-10-31T09:34:07;12.27;;;8.43;;
17382;SDS011;8809;51.892;8.384;2023-10-31T09:36:35;13.82;;;8.60;;
17382;SDS011;8809;51.892;8.384;2023-10-31T09:39:02;10.13;;;7.35;;
17382;SDS011;8809;51.892;8.384;2023-10-31T09:41:29;13.25;;;8.02;;
17382;SDS011;8809;51.892;8.384;2023-10-31T09:43:57;12.25;;;8.18;;
17382;SDS011;8809;51.892;8.384;2023-10-31T09:46:25;12.48;;;8.75;;
17382;SDS011;8809;51.892;8.384;2023-10-31T09:48:53;12.07;;;8.77;;
17382;SDS011;8809;51.892;8.384;2023-10-31T09:51:22;14.85;;;9.50;;
17382;SDS011;8809;51.892;8.384;2023-10-31T09:53:50;11.52;;;8.75;;
17382;SDS011;8809;51.892;8.384;2023-10-31T09:56:20;13.30;;;8.60;;
17382;SDS011;8809;51.892;8.384;2023-10-31T09:58:51;11.15;;;8.02;;
17382;SDS011;8809;51.892;8.384;2023-10-31T10:01:18;11.48;;;7.63;;
17382;SDS011;8809;51.892;8.384;2023-10-31T10:03:45;11.27;;;8.15;;
17382;SDS011;8809;51.892;8.384;2023-10-31T10:06:12;10.38;;;7.70;;
17382;SDS011;8809;51.892;8.384;2023-10-31T10:08:42;11.20;;;7.70;;
17382;SDS011;8809;51.892;8.384;2023-10-31T10:11:09;10.23;;;7.55;;
17382;SDS011;8809;51.892;8.384;2023-10-31T10:13:37;10.52;;;6.70;;
17382;SDS011;8809;51.892;8.384;2023-10-31T10:16:06;9.13;;;6.93;;
17382;SDS011;8809;51.892;8.384;2023-10-31T10:18:35;10.73;;;7.28;;
17382;SDS011;8809;51.892;8.384;2023-10-31T10:21:05;8.23;;;6.15;;
17382;SDS011;8809;51.892;8.384;2023-10-31T10:23:32;9.00;;;6.85;;
17382;SDS011;8809;51.892;8.384;2023-10-31T10:26:01;9.07;;;6.80;;
17382;SDS011;8809;51.892;8.384;2023-10-31T10:28:29;9.65;;;7.32;;
17382;SDS011;8809;51.892;8.384;2023-10-31T10:30:58;10.23;;;7.68;;
17382;SDS011;8809;51.892;8.384;2023-10-31T10:33:25;10.27;;;7.70;;
17382;SDS011;8809;51.892;8.384;2023-10-31T10:35:52;9.82;;;7.50;;
17382;SDS011;8809;51.892;8.384;2023-10-31T10:38:21;10.90;;;8.20;;
17382;SDS011;8809;51.892;8.384;2023-10-31T10:40:49;9.68;;;8.05;;
17382;SDS011;8809;51.892;8.384;2023-10-31T10:43:20;11.13;;;8.30;;
17382;SDS011;8809;51.892;8.384;2023-10-31T10:45:52;10.63;;;8.43;;
17382;SDS011;8809;51.892;8.384;2023-10-31T10:48:22;11.10;;;8.35;;
17382;SDS011;8809;51.892;8.384;2023-10-31T10:50:52;9.90;;;7.90;;
17382;SDS011;8809;51.892;8.384;2023-10-31T10:53:28;9.75;;;7.97;;
17382;SDS011;8809;51.892;8.384;2023-10-31T10:56:03;9.45;;;7.47;;
17382;SDS011;8809;51.892;8.384;2023-10-31T10:58:39;9.73;;;8.00;;
17382;SDS011;8809;51.892;8.384;2023-10-31T11:01:20;10.18;;;7.85;;
17382;SDS011;8809;51.892;8.384;2023-10-31T11:03:47;10.18;;;7.88;;
17382;SDS011;8809;51.892;8.384;2023-10-31T11:06:16;11.10;;;8.73;;
17382;SDS011;8809;51.892;8.384;2023-10-31T11:08:45;12.63;;;9.27;;
17382;SDS011;8809;51.892;8.384;2023-10-31T11:11:14;11.02;;;9.80;;
17382;SDS011;8809;51.892;8.384;2023-10-31T11:13:44;12.15;;;10.30;;
17382;SDS011;8809;51.892;8.384;2023-10-31T11:16:13;13.50;;;11.15;;
17382;SDS011;8809;51.892;8.384;2023-10-31T11:18:44;13.02;;;11.25;;
17382;SDS011;8809;51.892;8.384;2023-10-31T11:21:12;14.85;;;11.23;;
17382;SDS011;8809;51.892;8.384;2023-10-31T11:23:41;16.40;;;12.15;;
17382;SDS011;8809;51.892;8.384;2023-10-31T11:26:08;15.27;;;12.38;;
17382;SDS011;8809;51.892;8.384;2023-10-31T11:28:37;14.95;;;10.98;;
17382;SDS011;8809;51.892;8.384;2023-10-31T11:31:07;14.27;;;12.05;;
17382;SDS011;8809;51.892;8.384;2023-10-31T11:33:35;15.15;;;11.35;;
17382;SDS011;8809;51.892;8.384;2023-10-31T11:36:06;14.55;;;11.77;;
17382;SDS011;8809;51.892;8.384;2023-10-31T11:38:34;12.25;;;10.27;;
17382;SDS011;8809;51.892;8.384;2023-10-31T11:41:04;11.68;;;10.02;;
17382;SDS011;8809;51.892;8.384;2023-10-31T11:46:20;14.75;;;11.23;;
17382;SDS011;8809;51.892;8.384;2023-10-31T11:48:50;15.88;;;11.75;;
17382;SDS011;8809;51.892;8.384;2023-10-31T11:51:18;14.45;;;11.55;;
17382;SDS011;8809;51.892;8.384;2023-10-31T11:53:46;13.07;;;10.80;;
17382;SDS011;8809;51.892;8.384;2023-10-31T11:56:16;13.73;;;10.77;;
17382;SDS011;8809;51.892;8.384;2023-10-31T11:58:43;11.82;;;10.35;;
17382;SDS011;8809;51.892;8.384;2023-10-31T12:01:10;11.77;;;9.57;;
17382;SDS011;8809;51.892;8.384;2023-10-31T12:03:40;12.57;;;10.88;;
17382;SDS011;8809;51.892;8.384;2023-10-31T12:06:09;15.98;;;12.10;;
17382;SDS011;8809;51.892;8.384;2023-10-31T12:08:37;13.23;;;10.48;;
17382;SDS011;8809;51.892;8.384;2023-10-31T12:11:08;12.55;;;10.18;;
17382;SDS011;8809;51.892;8.384;2023-10-31T12:13:37;12.30;;;10.90;;
17382;SDS011;8809;51.892;8.384;2023-10-31T12:16:05;12.40;;;10.32;;
17382;SDS011;8809;51.892;8.384;2023-10-31T12:18:33;13.60;;;11.13;;
17382;SDS011;8809;51.892;8.384;2023-10-31T12:21:03;12.93;;;11.40;;
17382;SDS011;8809;51.892;8.384;2023-10-31T12:23:32;14.48;;;11.07;;
17382;SDS011;8809;51.892;8.384;2023-10-31T12:25:59;15.52;;;11.80;;
17382;SDS011;8809;51.892;8.384;2023-10-31T12:28:27;14.10;;;12.40;;
17382;SDS011;8809;51.892;8.384;2023-10-31T12:30:55;15.40;;;12.65;;
17382;SDS011;8809;51.892;8.384;2023-10-31T12:33:25;15.50;;;12.70;;
17382;SDS011;8809;51.892;8.384;2023-10-31T12:35:56;13.32;;;11.93;;
17382;SDS011;8809;51.892;8.384;2023-10-31T12:38:26;14.65;;;11.80;;
17382;SDS011;8809;51.892;8.384;2023-10-31T12:40:54;13.77;;;10.48;;
17382;SDS011;8809;51.892;8.384;2023-10-31T12:43:23;12.20;;;10.90;;
17382;SDS011;8809;51.892;8.384;2023-10-31T12:45:52;21.52;;;12.63;;
17382;SDS011;8809;51.892;8.384;2023-10-31T12:48:23;19.38;;;11.85;;
17382;SDS011;8809;51.892;8.384;2023-10-31T12:50:55;16.45;;;11.82;;
17382;SDS011;8809;51.892;8.384;2023-10-31T12:53:35;15.68;;;11.80;;
17382;SDS011;8809;51.892;8.384;2023-10-31T12:56:02;16.70;;;11.85;;
17382;SDS011;8809;51.892;8.384;2023-10-31T12:58:30;16.10;;;11.40;;
17382;SDS011;8809;51.892;8.384;2023-10-31T13:00:57;14.40;;;11.52;;
17382;SDS011;8809;51.892;8.384;2023-10-31T13:03:24;14.80;;;12.77;;
17382;SDS011;8809;51.892;8.384;2023-10-31T13:05:51;16.92;;;13.20;;
17382;SDS011;8809;51.892;8.384;2023-10-31T13:08:19;17.25;;;12.35;;
17382;SDS011;8809;51.892;8.384;2023-10-31T13:10:51;18.95;;;13.35;;
17382;SDS011;8809;51.892;8.384;2023-10-31T13:13:19;18.00;;;12.55;;
17382;SDS011;8809;51.892;8.384;2023-10-31T13:15:46;17.17;;;11.90;;
17382;SDS011;8809;51.892;8.384;2023-10-31T13:18:13;19.35;;;13.07;;
17382;SDS011;8809;51.892;8.384;2023-10-31T13:20:40;12.82;;;11.43;;
17382;SDS011;8809;51.892;8.384;2023-10-31T13:23:08;15.38;;;12.15;;
17382;SDS011;8809;51.892;8.384;2023-10-31T13:25:35;22.35;;;13.23;;
17382;SDS011;8809;51.892;8.384;2023-10-31T13:28:03;14.07;;;11.52;;
17382;SDS011;8809;51.892;8.384;2023-10-31T13:30:32;15.90;;;13.02;;
17382;SDS011;8809;51.892;8.384;2023-10-31T13:33:00;16.00;;;12.48;;
17382;SDS011;8809;51.892;8.384;2023-10-31T13:35:28;16.88;;;12.23;;
17382;SDS011;8809;51.892;8.384;2023-10-31T13:37:55;17.17;;;13.25;;
17382;SDS011;8809;51.892;8.384;2023-10-31T13:40:22;16.95;;;12.93;;
17382;SDS011;8809;51.892;8.384;2023-10-31T13:42:49;17.25;;;13.27;;
17382;SDS011;8809;51.892;8.384;2023-10-31T13:45:18;18.23;;;12.68;;
17382;SDS011;8809;51.892;8.384;2023-10-31T13:47:45;15.50;;;11.77;;
17382;SDS011;8809;51.892;8.384;2023-10-31T13:50:12;19.00;;;11.95;;
17382;SDS011;8809;51.892;8.384;2023-10-31T13:52:39;12.32;;;10.18;;
17382;SDS011;8809;51.892;8.384;2023-10-31T13:55:07;18.35;;;12.88;;
17382;SDS011;8809;51.892;8.384;2023-10-31T13:57:34;15.63;;;12.52;;
17382;SDS011;8809;51.892;8.384;2023-10-31T14:00:02;21.52;;;14.40;;
17382;SDS011;8809;51.892;8.384;2023-10-31T14:02:31;19.02;;;14.40;;
17382;SDS011;8809;51.892;8.384;2023-10-31T14:04:58;18.40;;;12.85;;
17382;SDS011;8809;51.892;8.384;2023-10-31T14:07:25;20.90;;;13.65;;
17382;SDS011;8809;51.892;8.384;2023-10-31T14:09:53;17.40;;;13.02;;
17382;SDS011;8809;51.892;8.384;2023-10-31T14:12:21;17.38;;;12.48;;
17382;SDS011;8809;51.892;8.384;2023-10-31T14:14:48;15.55;;;12.07;;
17382;SDS011;8809;51.892;8.384;2023-10-31T14:17:16;13.75;;;11.13;;
17382;SDS011;8809;51.892;8.384;2023-10-31T14:19:45;18.30;;;13.20;;
17382;SDS011;8809;51.892;8.384;2023-10-31T14:22:12;16.73;;;12.73;;
17382;SDS011;8809;51.892;8.384;2023-10-31T14:24:39;18.13;;;13.25;;
17382;SDS011;8809;51.892;8.384;2023-10-31T14:27:07;17.52;;;12.68;;
17382;SDS011;8809;51.892;8.384;2023-10-31T14:29:34;16.85;;;11.73;;
17382;SDS011;8809;51.892;8.384;2023-10-31T14:32:05;16.85;;;11.75;;
17382;SDS011;8809;51.892;8.384;2023-10-31T14:34:32;15.27;;;11.38;;
17382;SDS011;8809;51.892;8.384;2023-10-31T14:37:01;12.32;;;10.75;;
17382;SDS011;8809;51.892;8.384;2023-10-31T14:39:28;17.40;;;11.48;;
17382;SDS011;8809;51.892;8.384;2023-10-31T14:41:55;14.50;;;10.55;;
17382;SDS011;8809;51.892;8.384;2023-10-31T14:44:22;10.93;;;9.27;;
17382;SDS011;8809;51.892;8.384;2023-10-31T14:46:50;12.45;;;9.90;;
17382;SDS011;8809;51.892;8.384;2023-10-31T14:49:19;15.85;;;10.77;;
17382;SDS011;8809;51.892;8.384;2023-10-31T14:51:47;12.40;;;9.57;;
17382;SDS011;8809;51.892;8.384;2023-10-31T14:54:15;13.45;;;9.32;;
17382;SDS011;8809;51.892;8.384;2023-10-31T14:56:42;11.45;;;8.43;;
17382;SDS011;8809;51.892;8.384;2023-10-31T14:59:10;11.90;;;8.00;;